createdAt,value
2018-03-27T00:02:26.486Z,5.60
2018-03-27T00:04:55.330Z,5.60
2018-03-27T00:07:23.389Z,5.50
2018-03-27T00:09:53.189Z,5.70
2018-03-27T00:12:21.239Z,5.60
2018-03-27T00:14:50.090Z,5.40
2018-03-27T00:17:18.154Z,5.40
2018-03-27T00:19:46.224Z,5.50
2018-03-27T00:22:14.286Z,5.60
2018-03-27T00:24:43.245Z,5.30
2018-03-27T00:27:11.398Z,5.40
2018-03-27T00:29:57.484Z,5.50
2018-03-27T00:32:43.417Z,5.40
2018-03-27T00:35:29.318Z,5.60
2018-03-27T00:38:15.142Z,5.50
2018-03-27T00:40:43.277Z,5.40
2018-03-27T00:43:14.774Z,5.50
2018-03-27T00:45:42.845Z,5.70
2018-03-27T00:48:11.018Z,5.70
2018-03-27T00:50:39.090Z,5.40
2018-03-27T00:53:07.166Z,5.40
2018-03-27T00:55:35.234Z,5.40
2018-03-27T00:58:03.304Z,5.60
2018-03-27T01:00:32.222Z,5.70
2018-03-27T01:03:00.289Z,5.50
2018-03-27T01:05:28.333Z,5.60
2018-03-27T01:07:56.438Z,5.50
2018-03-27T01:10:24.494Z,5.50
2018-03-27T01:12:53.319Z,5.60
2018-03-27T01:15:21.871Z,5.60
2018-03-27T01:17:50.016Z,5.80
2018-03-27T01:20:18.059Z,5.60
2018-03-27T01:22:46.130Z,5.60
2018-03-27T01:25:14.200Z,5.60
2018-03-27T01:27:42.262Z,5.80
2018-03-27T01:30:10.365Z,5.90
2018-03-27T01:32:38.538Z,5.70
2018-03-27T01:35:06.626Z,5.70
2018-03-27T01:37:34.690Z,5.70
2018-03-27T01:40:02.759Z,5.60
2018-03-27T01:42:30.825Z,5.70
2018-03-27T01:44:58.887Z,5.50
2018-03-27T01:47:26.994Z,5.50
2018-03-27T01:49:55.053Z,5.40
2018-03-27T01:52:23.119Z,5.40
2018-03-27T01:54:52.941Z,5.60
2018-03-27T01:57:21.007Z,5.50
2018-03-27T01:59:49.113Z,5.40
2018-03-27T02:02:17.197Z,5.50
2018-03-27T02:04:45.262Z,5.40
2018-03-27T02:07:13.350Z,5.50
2018-03-27T02:09:41.408Z,5.50
2018-03-27T02:12:14.932Z,5.50
2018-03-27T02:14:48.577Z,5.50
2018-03-27T02:17:22.224Z,5.60
2018-03-27T02:19:56.011Z,5.80
2018-03-27T02:22:24.078Z,5.70
2018-03-27T02:24:52.290Z,5.80
2018-03-27T02:27:20.462Z,5.80
2018-03-27T02:29:48.513Z,5.70
2018-03-27T02:32:16.690Z,5.70
2018-03-27T02:34:44.748Z,5.50
2018-03-27T02:37:13.587Z,5.60
2018-03-27T02:39:41.668Z,5.60
2018-03-27T02:42:09.745Z,5.40
2018-03-27T02:44:37.802Z,5.40
2018-03-27T02:47:05.869Z,5.30
2018-03-27T02:49:33.930Z,5.50
2018-03-27T02:52:03.899Z,5.40
2018-03-27T02:54:33.129Z,5.30
2018-03-27T02:57:01.167Z,5.20
2018-03-27T02:59:29.246Z,5.20
2018-03-27T03:01:57.322Z,5.20
2018-03-27T03:04:25.384Z,5.20
2018-03-27T03:06:53.459Z,5.30
2018-03-27T03:09:21.560Z,5.10
2018-03-27T03:11:49.634Z,5.00
2018-03-27T03:14:17.697Z,5.00
2018-03-27T03:16:45.781Z,5.00
2018-03-27T03:19:13.863Z,5.00
2018-03-27T03:21:41.922Z,4.90
2018-03-27T03:24:09.998Z,4.90
2018-03-27T03:26:38.113Z,4.90
2018-03-27T03:29:06.134Z,4.90
2018-03-27T03:31:34.195Z,5.00
2018-03-27T03:34:02.261Z,5.00
2018-03-27T03:36:31.090Z,5.00
2018-03-27T03:38:59.154Z,5.00
2018-03-27T03:41:27.220Z,5.00
2018-03-27T03:43:55.282Z,4.90
2018-03-27T03:46:24.126Z,4.90
2018-03-27T03:48:52.194Z,5.00
2018-03-27T03:51:20.252Z,5.10
2018-03-27T03:53:48.323Z,5.20
2018-03-27T03:56:16.377Z,5.10
2018-03-27T03:58:45.243Z,4.90
2018-03-27T04:01:13.297Z,5.00
2018-03-27T04:03:41.370Z,5.10
2018-03-27T04:06:09.430Z,5.00
2018-03-27T04:08:37.550Z,5.00
2018-03-27T04:11:05.597Z,5.00
2018-03-27T04:13:35.017Z,4.90
2018-03-27T04:16:04.213Z,4.90
2018-03-27T04:18:32.279Z,4.90
2018-03-27T04:21:00.373Z,4.70
2018-03-27T04:23:28.444Z,4.90
2018-03-27T04:25:56.507Z,5.10
2018-03-27T04:28:24.581Z,4.90
2018-03-27T04:30:52.634Z,4.80
2018-03-27T04:33:20.698Z,5.00
2018-03-27T04:35:49.529Z,4.90
2018-03-27T04:38:17.590Z,4.80
2018-03-27T04:40:45.674Z,4.60
2018-03-27T04:43:13.726Z,4.40
2018-03-27T04:45:41.850Z,4.50
2018-03-27T04:48:09.918Z,4.70
2018-03-27T04:50:37.982Z,4.70
2018-03-27T04:53:06.057Z,4.40
2018-03-27T04:55:35.381Z,4.40
2018-03-27T04:58:04.665Z,4.30
2018-03-27T05:00:32.714Z,4.50
2018-03-27T05:03:00.784Z,4.40
2018-03-27T05:05:29.670Z,4.20
2018-03-27T05:07:58.530Z,4.30
2018-03-27T05:10:26.599Z,4.30
2018-03-27T05:12:54.655Z,4.30
2018-03-27T05:15:22.757Z,4.40
2018-03-27T05:17:50.826Z,4.30
2018-03-27T05:20:18.894Z,4.40
2018-03-27T05:22:46.989Z,4.50
2018-03-27T05:25:15.061Z,4.30
2018-03-27T05:27:43.146Z,4.40
2018-03-27T05:30:11.356Z,4.40
2018-03-27T05:32:40.178Z,4.40
2018-03-27T05:35:08.252Z,4.50
2018-03-27T05:37:36.318Z,4.30
2018-03-27T05:40:05.098Z,4.40
2018-03-27T05:42:35.043Z,4.60
2018-03-27T05:45:03.156Z,4.70
2018-03-27T05:47:31.338Z,4.60
2018-03-27T05:49:59.406Z,4.50
2018-03-27T05:52:27.458Z,4.60
2018-03-27T05:54:55.551Z,4.50
2018-03-27T05:57:23.610Z,4.40
2018-03-27T05:59:52.452Z,4.40
2018-03-27T06:02:20.514Z,4.60
2018-03-27T06:04:49.395Z,4.60
2018-03-27T06:07:17.468Z,4.70
2018-03-27T06:09:45.558Z,4.70
2018-03-27T06:12:13.630Z,4.80
2018-03-27T06:14:41.690Z,4.60
2018-03-27T06:17:09.836Z,4.70
2018-03-27T06:19:38.673Z,4.60
2018-03-27T06:22:06.747Z,4.40
2018-03-27T06:24:36.362Z,4.40
2018-03-27T06:27:05.549Z,4.40
2018-03-27T06:29:33.659Z,4.20
2018-03-27T06:32:01.724Z,4.10
2018-03-27T06:34:29.894Z,4.10
2018-03-27T06:36:58.143Z,4.10
2018-03-27T06:39:26.257Z,4.30
2018-03-27T06:41:54.322Z,4.40
2018-03-27T06:44:22.390Z,4.10
2018-03-27T06:46:50.451Z,4.10
2018-03-27T06:49:18.527Z,4.00
2018-03-27T06:51:46.577Z,3.90
2018-03-27T06:54:15.409Z,4.00
2018-03-27T06:56:44.025Z,4.10
2018-03-27T06:59:12.098Z,4.00
2018-03-27T07:01:40.166Z,3.80
2018-03-27T07:04:08.234Z,3.80
2018-03-27T07:06:36.286Z,3.80
2018-03-27T07:09:04.368Z,3.90
2018-03-27T07:11:32.806Z,4.00
2018-03-27T07:14:01.744Z,4.00
2018-03-27T07:16:31.290Z,4.00
2018-03-27T07:18:59.357Z,4.00
2018-03-27T07:21:27.443Z,4.00
2018-03-27T07:23:55.521Z,3.90
2018-03-27T07:26:23.587Z,3.80
2018-03-27T07:28:52.965Z,3.90
2018-03-27T07:31:21.050Z,4.00
2018-03-27T07:33:49.106Z,4.00
2018-03-27T07:36:17.582Z,4.10
2018-03-27T07:38:47.150Z,4.20
2018-03-27T07:41:15.218Z,4.40
2018-03-27T07:43:43.299Z,4.50
2018-03-27T07:46:11.361Z,4.40
2018-03-27T07:48:39.449Z,4.60
2018-03-27T07:51:07.511Z,4.80
2018-03-27T07:53:36.731Z,4.80
2018-03-27T07:56:04.806Z,4.90
2018-03-27T07:58:32.859Z,4.80
2018-03-27T08:01:00.923Z,4.80
2018-03-27T08:03:29.035Z,4.80
2018-03-27T08:05:57.117Z,4.90
2018-03-27T08:08:25.168Z,4.90
2018-03-27T08:10:54.083Z,5.00
2018-03-27T08:13:22.166Z,4.90
2018-03-27T08:15:50.301Z,5.00
2018-03-27T08:18:18.428Z,5.10
2018-03-27T08:20:46.491Z,5.00
2018-03-27T08:23:14.898Z,5.10
2018-03-27T08:25:42.972Z,5.20
2018-03-27T08:28:11.130Z,5.40
2018-03-27T08:30:39.310Z,5.60
2018-03-27T08:33:07.362Z,5.60
2018-03-27T08:35:35.430Z,5.90
2018-03-27T08:38:03.509Z,6.10
2018-03-27T08:40:31.594Z,6.30
2018-03-27T08:42:59.659Z,6.50
2018-03-27T08:45:27.766Z,6.60
2018-03-27T08:47:55.982Z,6.50
2018-03-27T08:50:24.130Z,6.60
2018-03-27T08:52:53.243Z,6.20
2018-03-27T08:55:21.407Z,6.50
2018-03-27T08:57:49.820Z,6.40
2018-03-27T09:00:17.970Z,6.50
2018-03-27T09:02:46.143Z,6.60
2018-03-27T09:05:14.165Z,6.30
2018-03-27T09:07:43.018Z,6.30
2018-03-27T09:10:11.206Z,6.20
2018-03-27T09:12:39.373Z,6.50
2018-03-27T09:15:07.805Z,6.60
2018-03-27T09:17:35.847Z,6.60
2018-03-27T09:20:03.918Z,6.60
2018-03-27T09:22:32.086Z,6.50
2018-03-27T09:25:00.979Z,6.50
2018-03-27T09:27:29.039Z,6.40
2018-03-27T09:29:57.097Z,6.30
2018-03-27T09:32:25.154Z,6.20
2018-03-27T09:34:53.997Z,6.50
2018-03-27T09:37:22.066Z,6.70
2018-03-27T09:39:50.162Z,6.90
2018-03-27T09:42:18.214Z,7.40
2018-03-27T09:44:46.326Z,7.40
2018-03-27T09:47:14.422Z,7.40
2018-03-27T09:49:43.475Z,7.50
2018-03-27T09:52:11.527Z,7.50
2018-03-27T09:54:39.586Z,7.90
2018-03-27T09:57:09.106Z,8.10
2018-03-27T09:59:38.281Z,8.60
2018-03-27T10:02:08.239Z,8.20
2018-03-27T10:04:36.304Z,7.90
2018-03-27T10:07:04.418Z,7.70
2018-03-27T10:09:32.489Z,7.30
2018-03-27T10:12:00.559Z,7.80
2018-03-27T10:14:28.610Z,8.30
2018-03-27T10:16:56.684Z,8.30
2018-03-27T10:19:24.730Z,8.60
2018-03-27T10:21:53.591Z,8.80
2018-03-27T10:24:21.664Z,8.60
2018-03-27T10:26:49.734Z,8.80
2018-03-27T10:29:17.818Z,8.90
2018-03-27T10:31:45.897Z,9.10
2018-03-27T10:34:13.954Z,9.00
2018-03-27T10:36:42.016Z,8.80
2018-03-27T10:39:10.830Z,8.40
2018-03-27T10:41:39.089Z,8.10
2018-03-27T10:44:07.138Z,8.00
2018-03-27T10:46:35.990Z,8.00
2018-03-27T10:49:04.062Z,7.90
2018-03-27T10:51:32.139Z,8.10
2018-03-27T10:54:00.195Z,8.10
2018-03-27T10:56:28.266Z,7.90
2018-03-27T10:58:56.321Z,8.20
2018-03-27T11:01:25.161Z,8.10
2018-03-27T11:03:53.225Z,8.10
2018-03-27T11:06:21.289Z,8.10
2018-03-27T11:08:49.342Z,8.20
2018-03-27T11:11:18.972Z,8.40
2018-03-27T11:13:47.030Z,8.60
2018-03-27T11:16:15.866Z,8.40
2018-03-27T11:18:44.629Z,8.60
2018-03-27T11:21:12.703Z,8.70
2018-03-27T11:23:40.758Z,10.30
2018-03-27T11:26:10.730Z,11.00
2018-03-27T11:28:39.537Z,10.40
2018-03-27T11:31:07.706Z,10.10
2018-03-27T11:33:35.778Z,9.80
2018-03-27T11:36:03.850Z,9.30
2018-03-27T11:38:31.902Z,9.20
2018-03-27T11:40:59.966Z,9.20
2018-03-27T11:43:28.022Z,9.30
2018-03-27T11:45:56.175Z,9.60
2018-03-27T11:48:24.293Z,10.90
2018-03-27T11:50:52.733Z,13.20
2018-03-27T11:53:20.911Z,14.40
2018-03-27T11:55:49.001Z,14.90
2018-03-27T11:58:17.166Z,14.90
2018-03-27T12:00:45.345Z,13.90
2018-03-27T12:03:13.523Z,14.40
2018-03-27T12:05:41.602Z,14.00
2018-03-27T12:08:10.894Z,12.30
2018-03-27T12:10:40.092Z,13.30
2018-03-27T12:13:08.154Z,13.50
2018-03-27T12:15:36.252Z,11.80
2018-03-27T12:18:04.323Z,12.70
2018-03-27T12:20:32.403Z,13.60
2018-03-27T12:23:00.582Z,15.00
2018-03-27T12:25:28.933Z,14.90
2018-03-27T12:27:57.020Z,16.00
2018-03-27T12:30:25.093Z,17.00
2018-03-27T12:32:53.198Z,15.10
2018-03-27T12:35:21.262Z,13.10
2018-03-27T12:37:49.349Z,13.50
2018-03-27T12:40:17.405Z,15.00
2018-03-27T12:42:45.483Z,14.40
2018-03-27T12:45:13.544Z,14.50
2018-03-27T12:47:41.646Z,13.40
2018-03-27T12:50:11.335Z,12.90
2018-03-27T12:52:40.547Z,12.50
2018-03-27T12:55:09.066Z,11.50
2018-03-27T12:57:37.954Z,11.00
2018-03-27T13:00:06.034Z,10.30
2018-03-27T13:02:34.105Z,10.00
2018-03-27T13:05:02.177Z,9.50
2018-03-27T13:07:30.262Z,9.20
2018-03-27T13:09:58.326Z,9.50
2018-03-27T13:12:26.388Z,9.30
2018-03-27T13:14:54.447Z,9.20
2018-03-27T13:17:22.561Z,8.90
2018-03-27T13:19:50.640Z,8.80
2018-03-27T13:22:18.706Z,8.30
2018-03-27T13:24:46.791Z,8.20
2018-03-27T13:27:14.869Z,8.00
2018-03-27T13:29:42.921Z,8.20
2018-03-27T13:32:11.967Z,9.00
2018-03-27T13:34:41.149Z,9.40
2018-03-27T13:37:09.390Z,10.10
2018-03-27T13:39:37.450Z,10.50
2018-03-27T13:42:06.286Z,10.30
2018-03-27T13:44:34.365Z,10.80
2018-03-27T13:47:02.432Z,12.60
2018-03-27T13:49:30.498Z,14.10
2018-03-27T13:51:58.898Z,13.60
2018-03-27T13:54:26.979Z,14.30
2018-03-27T13:56:55.178Z,14.80
2018-03-27T13:59:23.339Z,14.90
2018-03-27T14:01:53.207Z,15.30
2018-03-27T14:04:22.044Z,14.20
2018-03-27T14:06:50.172Z,13.90
2018-03-27T14:09:18.205Z,14.60
2018-03-27T14:11:46.282Z,15.00
2018-03-27T14:14:14.361Z,15.20
2018-03-27T14:16:42.434Z,15.30
2018-03-27T14:19:11.630Z,15.00
2018-03-27T14:21:39.810Z,14.10
2018-03-27T14:24:07.890Z,13.90
2018-03-27T14:26:36.057Z,13.70
2018-03-27T14:29:04.238Z,13.30
2018-03-27T14:31:32.298Z,13.30
2018-03-27T14:34:00.414Z,12.90
2018-03-27T14:36:28.489Z,12.60
2018-03-27T14:38:57.539Z,11.80
2018-03-27T14:41:25.655Z,11.20
2018-03-27T14:43:53.746Z,10.30
2018-03-27T14:46:21.810Z,10.10
2018-03-27T14:48:49.982Z,9.80
2018-03-27T14:51:18.061Z,9.70
2018-03-27T14:53:46.126Z,9.50
2018-03-27T14:56:14.184Z,9.30
2018-03-27T14:58:42.252Z,9.20
2018-03-27T15:01:10.316Z,8.90
2018-03-27T15:03:38.434Z,9.00
2018-03-27T15:06:06.490Z,9.40
2018-03-27T15:08:34.589Z,9.50
2018-03-27T15:11:03.378Z,9.50
2018-03-27T15:13:31.446Z,10.20
2018-03-27T15:15:59.512Z,10.30
2018-03-27T15:18:27.606Z,10.10
2018-03-27T15:20:55.694Z,10.40
2018-03-27T15:23:23.866Z,10.60
2018-03-27T15:25:52.158Z,10.80
2018-03-27T15:28:20.233Z,10.90
2018-03-27T15:30:48.290Z,10.50
2018-03-27T15:33:16.367Z,10.10
2018-03-27T15:35:45.266Z,9.90
2018-03-27T15:38:13.327Z,9.90
2018-03-27T15:40:41.390Z,10.00
2018-03-27T15:43:09.494Z,9.90
2018-03-27T15:45:37.557Z,10.10
2018-03-27T15:48:05.630Z,10.10
2018-03-27T15:50:35.681Z,10.20
2018-03-27T15:53:04.574Z,10.40
2018-03-27T15:55:32.674Z,10.40
2018-03-27T15:58:00.836Z,10.70
2018-03-27T16:00:28.891Z,10.80
2018-03-27T16:02:57.197Z,10.40
2018-03-27T16:05:25.259Z,10.40
2018-03-27T16:07:53.450Z,10.20
2018-03-27T16:10:21.555Z,9.90
2018-03-27T16:12:50.596Z,10.10
2018-03-27T16:15:18.653Z,10.60
2018-03-27T16:17:46.730Z,10.90
2018-03-27T16:20:14.807Z,10.80
2018-03-27T16:22:44.344Z,11.10
2018-03-27T16:25:13.392Z,10.90
2018-03-27T16:27:43.349Z,10.30
2018-03-27T16:30:11.677Z,10.00
2018-03-27T16:32:39.754Z,10.10
2018-03-27T16:35:08.777Z,9.60
2018-03-27T16:37:37.619Z,9.40
2018-03-27T16:40:05.714Z,9.40
2018-03-27T16:42:33.830Z,9.40
2018-03-27T16:45:02.042Z,9.50
2018-03-27T16:47:30.130Z,9.50
2018-03-27T16:49:58.194Z,9.30
2018-03-27T16:52:26.498Z,9.20
2018-03-27T16:54:54.679Z,9.30
2018-03-27T16:57:22.812Z,9.20
2018-03-27T16:59:50.938Z,9.10
2018-03-27T17:02:19.206Z,9.00
2018-03-27T17:04:47.285Z,8.90
2018-03-27T17:07:15.334Z,8.80
2018-03-27T17:09:57.545Z,8.70
2018-03-27T17:12:25.636Z,8.60
2018-03-27T17:15:06.703Z,8.60
2018-03-27T17:17:35.089Z,8.60
2018-03-27T17:20:03.250Z,8.50
2018-03-27T17:22:31.298Z,8.30
2018-03-27T17:24:59.425Z,8.20
2018-03-27T17:27:27.766Z,8.10
2018-03-27T17:29:55.821Z,8.10
2018-03-27T17:32:24.662Z,8.00
2018-03-27T17:34:52.741Z,7.80
2018-03-27T17:37:21.017Z,7.60
2018-03-27T17:39:49.109Z,7.60
2018-03-27T17:42:17.159Z,7.60
2018-03-27T17:44:45.254Z,7.60
2018-03-27T17:47:14.540Z,7.70
2018-03-27T17:49:42.646Z,7.60
2018-03-27T17:52:10.675Z,7.50
2018-03-27T17:54:38.782Z,7.40
2018-03-27T17:57:06.865Z,7.40
2018-03-27T17:59:34.942Z,7.50
2018-03-27T18:02:03.033Z,7.30
2018-03-27T18:04:31.389Z,7.20
2018-03-27T18:07:01.297Z,7.10
2018-03-27T18:09:29.358Z,7.10
2018-03-27T18:11:57.410Z,7.10
2018-03-27T18:14:26.362Z,7.20
2018-03-27T18:16:54.623Z,7.10
2018-03-27T18:19:22.694Z,7.10
2018-03-27T18:21:51.654Z,7.20
2018-03-27T18:24:20.490Z,7.10
2018-03-27T18:26:48.866Z,7.30
2018-03-27T18:29:16.978Z,7.10
2018-03-27T18:31:45.925Z,7.10
2018-03-27T18:34:15.117Z,7.10
2018-03-27T18:36:45.086Z,7.30
2018-03-27T18:39:13.345Z,7.20
2018-03-27T18:41:41.400Z,7.20
2018-03-27T18:44:09.459Z,7.20
2018-03-27T18:46:38.276Z,7.10
2018-03-27T18:49:06.444Z,7.00
2018-03-27T18:51:35.258Z,6.90
2018-03-27T18:54:03.335Z,7.00
2018-03-27T18:56:31.454Z,6.80
2018-03-27T18:58:59.630Z,6.60
2018-03-27T19:01:27.670Z,6.70
2018-03-27T19:03:55.926Z,6.70
2018-03-27T19:06:24.761Z,6.60
2018-03-27T19:08:52.821Z,6.60
2018-03-27T19:11:21.252Z,6.50
2018-03-27T19:13:49.454Z,6.60
2018-03-27T19:16:17.642Z,6.50
2018-03-27T19:18:46.102Z,6.50
2018-03-27T19:21:14.561Z,6.30
2018-03-27T19:23:42.641Z,6.30
2018-03-27T19:26:10.711Z,6.30
2018-03-27T19:28:38.786Z,6.30
2018-03-27T19:31:06.969Z,6.30
2018-03-27T19:33:35.350Z,6.30
2018-03-27T19:36:03.429Z,6.30
2018-03-27T19:38:31.608Z,6.40
2018-03-27T19:40:59.759Z,6.40
2018-03-27T19:43:27.844Z,6.30
2018-03-27T19:45:56.712Z,6.20
2018-03-27T19:48:24.831Z,6.20
2018-03-27T19:50:52.994Z,6.30
2018-03-27T19:53:21.086Z,6.30
2018-03-27T19:55:49.184Z,6.40
2018-03-27T19:58:17.230Z,6.40
2018-03-27T20:00:46.405Z,6.40
2018-03-27T20:03:15.196Z,6.40
2018-03-27T20:05:43.289Z,6.40
2018-03-27T20:08:11.338Z,6.40
2018-03-27T20:10:39.406Z,6.50
2018-03-27T20:13:08.254Z,6.30
2018-03-27T20:15:41.704Z,6.40
2018-03-27T20:18:04.615Z,6.40
2018-03-27T20:20:32.680Z,6.30
2018-03-27T20:23:01.093Z,6.30
2018-03-27T20:25:29.194Z,6.30
2018-03-27T20:27:58.051Z,6.40
2018-03-27T20:30:26.106Z,6.50
2018-03-27T20:32:54.272Z,6.50
2018-03-27T20:35:22.362Z,6.30
2018-03-27T20:37:50.450Z,6.30
2018-03-27T20:40:18.518Z,6.60
2018-03-27T20:42:47.659Z,6.50
2018-03-27T20:45:15.722Z,6.50
2018-03-27T20:47:43.771Z,6.20
2018-03-27T20:50:12.078Z,6.30
2018-03-27T20:52:40.139Z,6.20
2018-03-27T20:55:08.202Z,6.40
2018-03-27T20:57:36.335Z,6.40
2018-03-27T21:00:05.358Z,6.50
2018-03-27T21:02:33.461Z,6.60
2018-03-27T21:05:02.046Z,6.70
2018-03-27T21:07:30.161Z,6.70
2018-03-27T21:09:59.298Z,6.80
2018-03-27T21:12:27.439Z,6.80
2018-03-27T21:14:56.295Z,6.60
2018-03-27T21:17:24.367Z,6.60
2018-03-27T21:19:52.646Z,6.90
2018-03-27T21:22:20.738Z,7.10
2018-03-27T21:24:48.789Z,6.80
2018-03-27T21:27:18.109Z,6.70
2018-03-27T21:29:46.406Z,6.60
2018-03-27T21:32:14.476Z,6.70
2018-03-27T21:34:42.529Z,6.50
2018-03-27T21:37:10.734Z,6.50
2018-03-27T21:39:39.124Z,6.70
2018-03-27T21:42:07.988Z,6.60
2018-03-27T21:44:36.393Z,6.60
2018-03-27T21:47:05.502Z,6.70
2018-03-27T21:49:34.489Z,6.70
2018-03-27T21:52:02.566Z,6.60
2018-03-27T21:54:30.865Z,6.70
2018-03-27T21:56:59.806Z,6.80
2018-03-27T21:59:27.870Z,6.70
2018-03-27T22:01:56.693Z,6.70
2018-03-27T22:04:24.755Z,6.80
2018-03-27T22:06:52.834Z,6.70
2018-03-27T22:09:20.886Z,6.60
2018-03-27T22:11:49.728Z,6.50
2018-03-27T22:14:18.655Z,6.70
2018-03-27T22:16:46.807Z,6.60
2018-03-27T22:19:14.878Z,6.60
2018-03-27T22:21:42.954Z,6.50
2018-03-27T22:24:11.028Z,6.50
2018-03-27T22:26:39.084Z,6.40
2018-03-27T22:29:07.234Z,6.30
2018-03-27T22:31:36.894Z,6.30
2018-03-27T22:34:05.087Z,6.20
2018-03-27T22:36:33.250Z,6.30
2018-03-27T22:39:01.320Z,6.30
2018-03-27T22:41:29.375Z,6.10
2018-03-27T22:43:57.437Z,6.10
2018-03-27T22:46:26.262Z,6.10
2018-03-27T22:48:54.344Z,6.10
2018-03-27T22:51:22.397Z,6.00
2018-03-27T22:53:50.507Z,5.90
2018-03-27T22:56:19.506Z,6.00
2018-03-27T22:58:47.573Z,6.10
2018-03-27T23:01:15.654Z,6.10
2018-03-27T23:03:43.725Z,6.10
2018-03-27T23:06:11.875Z,6.20
2018-03-27T23:08:39.990Z,6.20
2018-03-27T23:11:08.066Z,6.00
2018-03-27T23:13:36.130Z,6.10
2018-03-27T23:16:04.198Z,6.00
2018-03-27T23:18:32.253Z,6.10
2018-03-27T23:21:00.376Z,6.00
2018-03-27T23:23:28.550Z,6.00
2018-03-27T23:25:56.626Z,6.00
2018-03-27T23:28:24.706Z,5.80
2018-03-27T23:30:52.764Z,5.90
2018-03-27T23:33:20.822Z,5.80
2018-03-27T23:35:49.989Z,5.80
2018-03-27T23:38:19.946Z,5.80
2018-03-27T23:40:48.106Z,5.60
2018-03-27T23:43:16.930Z,5.70
2018-03-27T23:45:45.066Z,5.80
2018-03-27T23:48:13.106Z,5.80
2018-03-27T23:50:41.170Z,5.60
2018-03-27T23:53:09.265Z,5.70
2018-03-27T23:55:37.450Z,5.50
2018-03-27T23:58:05.507Z,5.50
